Portada
METAR-TAF:

METAR-TAF

Aeroports :

Aeroport de la Ciutat de Londres

Londres, Anglaterra

latitud: 51-30N, longitud: 000-03E, altitud: 5 m

Observació

L'informe es va fer fa 27 minuts, a les 08:50 UTC
Vent 10 kt del Oest, variant entre Sud-Oest i Nord-Oest
Temperatura 13°C
Humitat 88%
Pressió 1015 hPa
Visibilitat: 3000 m
Escasses núvols a una alçada de 900 ft
Cel cobert a una alçada de 1300 ft
pluja, plugim

METAR: EGLC 060850Z AUTO 26010KT 220V310 3000 RADZ FEW009 OVC013 13/11 Q1015

Hora: 10:17 (09:17 UTC)


TAF: manca

Observacions i pronòstics meteorològics de més de 4000 aeroports (METAR i TAF).

Les estacions disponibles són els punts grocs i vermells al mapa.

Posi el ratolí al punt desitjat per veure el nom de l'estació.

Feu clic per veure les observacions i els pronòstics meteorològics.

Per canviar el mapa: feu clic els botons verds amb una creu de color negre per apropar; al botó verd amb un guió per allunyar la imatge; o en les fletxes verdes per a mapes adjacents.


METAR-TAF: